sensor_id;sensor_type;location;lat;lon;timestamp;pressure;altitude;pressure_sealevel;temperature;humidity
59272;BME280;45043;51.068;7.026;2024-03-07T00:02:35;101278.53;;;9.41;54.25
59272;BME280;45043;51.068;7.026;2024-03-07T00:05:36;101278.84;;;9.38;54.40
59272;BME280;45043;51.068;7.026;2024-03-07T00:08:36;101272.03;;;9.36;54.22
59272;BME280;45043;51.068;7.026;2024-03-07T00:11:37;101282.69;;;9.44;53.74
59272;BME280;45043;51.068;7.026;2024-03-07T00:14:38;101277.97;;;9.48;53.57
59272;BME280;45043;51.068;7.026;2024-03-07T00:17:39;101281.03;;;9.43;53.61
59272;BME280;45043;51.068;7.026;2024-03-07T00:20:41;101278.13;;;9.27;54.21
59272;BME280;45043;51.068;7.026;2024-03-07T00:23:43;101288.25;;;9.22;54.17
59272;BME280;45043;51.068;7.026;2024-03-07T00:26:44;101272.72;;;9.18;54.07
59272;BME280;45043;51.068;7.026;2024-03-07T00:29:48;101281.88;;;9.14;54.08
59272;BME280;45043;51.068;7.026;2024-03-07T00:32:53;101286.59;;;9.11;54.13
59272;BME280;45043;51.068;7.026;2024-03-07T00:35:56;101279.41;;;9.13;54.05
59272;BME280;45043;51.068;7.026;2024-03-07T00:38:56;101280.78;;;9.07;53.83
59272;BME280;45043;51.068;7.026;2024-03-07T00:41:59;101274.97;;;9.04;54.09
59272;BME280;45043;51.068;7.026;2024-03-07T00:44:59;101269.97;;;9.01;53.92
59272;BME280;45043;51.068;7.026;2024-03-07T00:48:00;101279.69;;;8.90;54.36
59272;BME280;45043;51.068;7.026;2024-03-07T00:51:03;101275.00;;;8.84;54.40
59272;BME280;45043;51.068;7.026;2024-03-07T00:54:04;101270.56;;;8.85;54.46
59272;BME280;45043;51.068;7.026;2024-03-07T00:57:08;101273.88;;;8.87;54.59
59272;BME280;45043;51.068;7.026;2024-03-07T01:00:10;101260.00;;;8.75;54.75
59272;BME280;45043;51.068;7.026;2024-03-07T01:03:15;101266.13;;;8.66;54.77
59272;BME280;45043;51.068;7.026;2024-03-07T01:06:18;101274.00;;;8.66;54.82
59272;BME280;45043;51.068;7.026;2024-03-07T01:09:20;101270.00;;;8.62;54.73
59272;BME280;45043;51.068;7.026;2024-03-07T01:12:23;101272.50;;;8.54;55.03
59272;BME280;45043;51.068;7.026;2024-03-07T01:15:28;101268.03;;;8.44;55.53
59272;BME280;45043;51.068;7.026;2024-03-07T01:18:29;101270.94;;;8.41;55.46
59272;BME280;45043;51.068;7.026;2024-03-07T01:21:30;101264.44;;;8.36;55.39
59272;BME280;45043;51.068;7.026;2024-03-07T01:24:31;101262.78;;;8.35;55.51
59272;BME280;45043;51.068;7.026;2024-03-07T01:27:33;101266.38;;;8.43;55.57
59272;BME280;45043;51.068;7.026;2024-03-07T01:30:34;101253.09;;;8.35;55.38
59272;BME280;45043;51.068;7.026;2024-03-07T01:33:35;101258.06;;;8.38;55.58
59272;BME280;45043;51.068;7.026;2024-03-07T01:36:36;101254.19;;;8.33;55.61
59272;BME280;45043;51.068;7.026;2024-03-07T01:39:37;101252.22;;;8.25;55.47
59272;BME280;45043;51.068;7.026;2024-03-07T01:42:38;101247.53;;;8.29;55.34
59272;BME280;45043;51.068;7.026;2024-03-07T01:45:38;101242.56;;;8.35;55.44
59272;BME280;45043;51.068;7.026;2024-03-07T01:48:40;101243.25;;;8.37;55.08
59272;BME280;45043;51.068;7.026;2024-03-07T01:51:41;101236.75;;;8.32;55.27
59272;BME280;45043;51.068;7.026;2024-03-07T01:54:43;101236.88;;;8.30;55.09
59272;BME280;45043;51.068;7.026;2024-03-07T01:57:44;101231.47;;;8.22;55.40
59272;BME280;45043;51.068;7.026;2024-03-07T02:00:47;101229.66;;;8.23;55.41
59272;BME280;45043;51.068;7.026;2024-03-07T02:03:48;101224.84;;;8.28;54.97
59272;BME280;45043;51.068;7.026;2024-03-07T02:06:50;101214.59;;;8.25;55.46
59272;BME280;45043;51.068;7.026;2024-03-07T02:10:04;101218.75;;;8.27;55.16
59272;BME280;45043;51.068;7.026;2024-03-07T02:13:05;101219.28;;;8.21;55.22
59272;BME280;45043;51.068;7.026;2024-03-07T02:16:06;101218.31;;;8.22;55.21
59272;BME280;45043;51.068;7.026;2024-03-07T02:19:07;101204.75;;;8.27;54.86
59272;BME280;45043;51.068;7.026;2024-03-07T02:22:12;101214.03;;;8.21;54.94
59272;BME280;45043;51.068;7.026;2024-03-07T02:25:13;101211.66;;;8.18;55.21
59272;BME280;45043;51.068;7.026;2024-03-07T02:28:16;101207.09;;;8.10;54.92
59272;BME280;45043;51.068;7.026;2024-03-07T02:31:16;101196.53;;;8.01;55.26
59272;BME280;45043;51.068;7.026;2024-03-07T02:34:20;101198.50;;;7.99;55.21
59272;BME280;45043;51.068;7.026;2024-03-07T02:37:21;101193.50;;;7.95;55.52
59272;BME280;45043;51.068;7.026;2024-03-07T02:40:22;101199.84;;;7.93;55.32
59272;BME280;45043;51.068;7.026;2024-03-07T02:43:23;101196.53;;;7.91;55.46
59272;BME280;45043;51.068;7.026;2024-03-07T02:46:25;101194.88;;;7.90;55.03
59272;BME280;45043;51.068;7.026;2024-03-07T02:49:25;101189.06;;;7.86;55.31
59272;BME280;45043;51.068;7.026;2024-03-07T02:52:26;101189.06;;;7.86;55.52
59272;BME280;45043;51.068;7.026;2024-03-07T02:55:27;101186.28;;;7.88;55.03
59272;BME280;45043;51.068;7.026;2024-03-07T02:58:27;101185.47;;;7.87;55.39
59272;BME280;45043;51.068;7.026;2024-03-07T03:01:28;101192.38;;;7.88;54.96
59272;BME280;45043;51.068;7.026;2024-03-07T03:04:29;101183.50;;;7.89;55.00
59272;BME280;45043;51.068;7.026;2024-03-07T03:07:29;101181.84;;;7.88;55.03
59272;BME280;45043;51.068;7.026;2024-03-07T03:10:30;101181.59;;;7.91;55.14
59272;BME280;45043;51.068;7.026;2024-03-07T03:13:31;101181.75;;;7.90;55.15
59272;BME280;45043;51.068;7.026;2024-03-07T03:16:33;101180.06;;;7.89;55.02
59272;BME280;45043;51.068;7.026;2024-03-07T03:19:34;101180.88;;;7.89;54.72
59272;BME280;45043;51.068;7.026;2024-03-07T03:22:35;101182.94;;;7.86;55.02
59272;BME280;45043;51.068;7.026;2024-03-07T03:25:36;101173.56;;;7.83;54.83
59272;BME280;45043;51.068;7.026;2024-03-07T03:28:38;101169.53;;;7.79;54.91
59272;BME280;45043;51.068;7.026;2024-03-07T03:31:40;101175.63;;;7.80;55.10
59272;BME280;45043;51.068;7.026;2024-03-07T03:34:40;101163.72;;;7.76;54.98
59272;BME280;45043;51.068;7.026;2024-03-07T03:37:43;101173.41;;;7.75;55.10
59272;BME280;45043;51.068;7.026;2024-03-07T03:40:43;101159.16;;;7.68;55.50
59272;BME280;45043;51.068;7.026;2024-03-07T03:43:46;101171.56;;;7.66;54.95
59272;BME280;45043;51.068;7.026;2024-03-07T03:46:48;101174.47;;;7.63;54.89
59272;BME280;45043;51.068;7.026;2024-03-07T03:49:49;101163.53;;;7.58;55.23
59272;BME280;45043;51.068;7.026;2024-03-07T03:52:52;101169.19;;;7.53;55.07
59272;BME280;45043;51.068;7.026;2024-03-07T03:55:53;101158.50;;;7.45;55.26
59272;BME280;45043;51.068;7.026;2024-03-07T03:58:53;101162.63;;;7.38;55.45
59272;BME280;45043;51.068;7.026;2024-03-07T04:01:54;101166.59;;;7.32;55.57
59272;BME280;45043;51.068;7.026;2024-03-07T04:04:55;101156.34;;;7.29;55.37
59272;BME280;45043;51.068;7.026;2024-03-07T04:07:56;101163.78;;;7.24;55.18
59272;BME280;45043;51.068;7.026;2024-03-07T04:10:57;101158.09;;;7.19;55.93
59272;BME280;45043;51.068;7.026;2024-03-07T04:13:58;101152.41;;;7.14;55.46
59272;BME280;45043;51.068;7.026;2024-03-07T04:16:58;101159.16;;;7.07;56.18
59272;BME280;45043;51.068;7.026;2024-03-07T04:20:00;101151.53;;;7.04;56.15
59272;BME280;45043;51.068;7.026;2024-03-07T04:23:01;101158.56;;;7.03;55.77
59272;BME280;45043;51.068;7.026;2024-03-07T04:26:04;101151.09;;;6.98;56.16
59272;BME280;45043;51.068;7.026;2024-03-07T04:29:05;101148.00;;;6.93;55.78
59272;BME280;45043;51.068;7.026;2024-03-07T04:32:05;101149.13;;;6.91;56.14
59272;BME280;45043;51.068;7.026;2024-03-07T04:35:07;101155.44;;;6.88;56.51
59272;BME280;45043;51.068;7.026;2024-03-07T04:38:08;101147.56;;;6.88;56.30
59272;BME280;45043;51.068;7.026;2024-03-07T04:41:11;101150.34;;;6.87;56.48
59272;BME280;45043;51.068;7.026;2024-03-07T04:44:12;101147.16;;;6.83;56.41
59272;BME280;45043;51.068;7.026;2024-03-07T04:47:13;101159.56;;;6.81;56.51
59272;BME280;45043;51.068;7.026;2024-03-07T04:50:14;101154.19;;;6.83;56.28
59272;BME280;45043;51.068;7.026;2024-03-07T04:53:18;101156.69;;;6.84;56.51
59272;BME280;45043;51.068;7.026;2024-03-07T04:56:19;101155.84;;;6.84;56.25
59272;BME280;45043;51.068;7.026;2024-03-07T04:59:20;101150.47;;;6.85;56.34
59272;BME280;45043;51.068;7.026;2024-03-07T05:02:22;101152.81;;;6.88;56.60
59272;BME280;45043;51.068;7.026;2024-03-07T05:05:24;101150.19;;;6.88;56.59
59272;BME280;45043;51.068;7.026;2024-03-07T05:08:26;101155.44;;;6.88;56.30
59272;BME280;45043;51.068;7.026;2024-03-07T05:11:30;101154.88;;;6.85;56.91
59272;BME280;45043;51.068;7.026;2024-03-07T05:14:31;101161.78;;;6.86;56.79
59272;BME280;45043;51.068;7.026;2024-03-07T05:17:32;101154.88;;;6.85;56.45
59272;BME280;45043;51.068;7.026;2024-03-07T05:20:35;101148.81;;;6.84;56.42
59272;BME280;45043;51.068;7.026;2024-03-07T05:23:36;101152.00;;;6.88;56.79
59272;BME280;45043;51.068;7.026;2024-03-07T05:26:37;101160.69;;;6.88;56.72
59272;BME280;45043;51.068;7.026;2024-03-07T05:29:40;101146.91;;;6.86;56.45
59272;BME280;45043;51.068;7.026;2024-03-07T05:32:42;101156.53;;;6.86;56.75
59272;BME280;45043;51.068;7.026;2024-03-07T05:35:43;101158.16;;;6.77;56.73
59272;BME280;45043;51.068;7.026;2024-03-07T05:38:44;101158.66;;;6.71;56.29
59272;BME280;45043;51.068;7.026;2024-03-07T05:41:45;101161.81;;;6.65;56.74
59272;BME280;45043;51.068;7.026;2024-03-07T05:44:46;101153.84;;;6.55;56.81
59272;BME280;45043;51.068;7.026;2024-03-07T05:47:47;101157.38;;;6.44;57.29
59272;BME280;45043;51.068;7.026;2024-03-07T05:50:48;101156.09;;;6.60;57.63
59272;BME280;45043;51.068;7.026;2024-03-07T05:53:49;101151.09;;;6.98;57.55
59272;BME280;45043;51.068;7.026;2024-03-07T05:56:50;101154.06;;;7.15;57.61
59272;BME280;45043;51.068;7.026;2024-03-07T05:59:51;101147.22;;;7.33;57.66
59272;BME280;45043;51.068;7.026;2024-03-07T06:02:52;101151.75;;;7.52;57.30
59272;BME280;45043;51.068;7.026;2024-03-07T06:05:54;101144.16;;;7.59;57.55
59272;BME280;45043;51.068;7.026;2024-03-07T06:08:54;101149.44;;;7.59;57.05
59272;BME280;45043;51.068;7.026;2024-03-07T06:11:56;101148.06;;;7.64;57.13
59272;BME280;45043;51.068;7.026;2024-03-07T06:14:56;101147.66;;;7.69;56.36
59272;BME280;45043;51.068;7.026;2024-03-07T06:17:57;101147.28;;;7.93;57.29
59272;BME280;45043;51.068;7.026;2024-03-07T06:20:57;101147.88;;;8.16;57.53
59272;BME280;45043;51.068;7.026;2024-03-07T06:24:02;101147.28;;;8.41;57.74
59272;BME280;45043;51.068;7.026;2024-03-07T06:27:03;101157.94;;;8.59;56.42
59272;BME280;45043;51.068;7.026;2024-03-07T06:30:10;101150.31;;;8.76;56.22
59272;BME280;45043;51.068;7.026;2024-03-07T06:33:12;101150.56;;;8.82;55.70
59272;BME280;45043;51.068;7.026;2024-03-07T06:36:13;101145.81;;;8.96;55.88
59272;BME280;45043;51.068;7.026;2024-03-07T06:39:15;101150.06;;;9.16;55.81
59272;BME280;45043;51.068;7.026;2024-03-07T06:42:15;101149.06;;;9.27;55.32
59272;BME280;45043;51.068;7.026;2024-03-07T06:45:16;101151.09;;;9.43;54.97
59272;BME280;45043;51.068;7.026;2024-03-07T06:48:17;101149.38;;;9.51;54.72
59272;BME280;45043;51.068;7.026;2024-03-07T06:51:18;101153.09;;;9.58;53.71
59272;BME280;45043;51.068;7.026;2024-03-07T06:54:19;101145.25;;;9.66;53.10
59272;BME280;45043;51.068;7.026;2024-03-07T06:57:21;101142.56;;;9.76;52.85
59272;BME280;45043;51.068;7.026;2024-03-07T07:00:22;101146.56;;;9.80;52.43
59272;BME280;45043;51.068;7.026;2024-03-07T07:03:22;101146.56;;;9.80;52.41
59272;BME280;45043;51.068;7.026;2024-03-07T07:06:24;101153.44;;;9.91;52.21
59272;BME280;45043;51.068;7.026;2024-03-07T07:09:26;101155.34;;;9.99;51.78
59272;BME280;45043;51.068;7.026;2024-03-07T07:12:27;101149.75;;;10.02;51.56
59272;BME280;45043;51.068;7.026;2024-03-07T07:15:29;101149.97;;;10.08;50.88
59272;BME280;45043;51.068;7.026;2024-03-07T07:18:30;101150.19;;;10.15;50.39
59272;BME280;45043;51.068;7.026;2024-03-07T07:21:31;101149.09;;;10.18;50.50
59272;BME280;45043;51.068;7.026;2024-03-07T07:24:32;101156.41;;;10.24;50.52
59272;BME280;45043;51.068;7.026;2024-03-07T07:27:35;101155.94;;;10.28;50.62
59272;BME280;45043;51.068;7.026;2024-03-07T07:30:35;101155.31;;;10.34;49.97
59272;BME280;45043;51.068;7.026;2024-03-07T07:33:37;101153.59;;;10.43;49.46
59272;BME280;45043;51.068;7.026;2024-03-07T07:36:37;101148.84;;;10.47;48.96
59272;BME280;45043;51.068;7.026;2024-03-07T07:39:38;101143.31;;;10.58;49.21
59272;BME280;45043;51.068;7.026;2024-03-07T07:42:42;101152.53;;;10.54;48.52
59272;BME280;45043;51.068;7.026;2024-03-07T07:45:43;101146.00;;;10.66;48.54
59272;BME280;45043;51.068;7.026;2024-03-07T07:48:44;101146.53;;;10.70;47.81
59272;BME280;45043;51.068;7.026;2024-03-07T07:51:45;101137.63;;;10.71;47.71
59272;BME280;45043;51.068;7.026;2024-03-07T07:54:46;101142.44;;;10.75;47.47
59272;BME280;45043;51.068;7.026;2024-03-07T07:57:48;101145.19;;;10.83;47.27
59272;BME280;45043;51.068;7.026;2024-03-07T08:00:52;101145.34;;;10.90;47.03
59272;BME280;45043;51.068;7.026;2024-03-07T08:03:53;101146.91;;;11.01;46.74
59272;BME280;45043;51.068;7.026;2024-03-07T08:06:55;101152.72;;;11.04;46.46
59272;BME280;45043;51.068;7.026;2024-03-07T08:09:56;101147.59;;;11.03;46.32
59272;BME280;45043;51.068;7.026;2024-03-07T08:12:58;101151.06;;;11.03;46.34
59272;BME280;45043;51.068;7.026;2024-03-07T08:16:00;101150.31;;;11.19;45.64
59272;BME280;45043;51.068;7.026;2024-03-07T08:19:01;101138.31;;;11.25;45.13
59272;BME280;45043;51.068;7.026;2024-03-07T08:22:04;101147.41;;;11.30;45.44
59272;BME280;45043;51.068;7.026;2024-03-07T08:25:05;101136.22;;;11.45;44.76
59272;BME280;45043;51.068;7.026;2024-03-07T08:28:09;101133.00;;;11.67;44.43
59272;BME280;45043;51.068;7.026;2024-03-07T08:31:10;101138.66;;;11.89;44.18
59272;BME280;45043;51.068;7.026;2024-03-07T08:34:11;101134.06;;;11.91;44.02
59272;BME280;45043;51.068;7.026;2024-03-07T08:37:12;101137.03;;;11.96;43.79
59272;BME280;45043;51.068;7.026;2024-03-07T08:40:13;101137.03;;;12.04;43.35
59272;BME280;45043;51.068;7.026;2024-03-07T08:43:20;101132.25;;;12.16;43.66
59272;BME280;45043;51.068;7.026;2024-03-07T08:46:22;101128.66;;;12.25;42.63
59272;BME280;45043;51.068;7.026;2024-03-07T08:49:23;101137.91;;;12.29;42.87
59272;BME280;45043;51.068;7.026;2024-03-07T08:52:24;101122.97;;;12.20;42.01
59272;BME280;45043;51.068;7.026;2024-03-07T08:55:25;101117.63;;;11.79;40.34
59272;BME280;45043;51.068;7.026;2024-03-07T08:58:25;101120.94;;;11.73;41.09
59272;BME280;45043;51.068;7.026;2024-03-07T09:01:26;101112.81;;;11.58;41.18
59272;BME280;45043;51.068;7.026;2024-03-07T09:04:27;101117.09;;;11.59;41.43
59272;BME280;45043;51.068;7.026;2024-03-07T09:07:29;101106.16;;;11.46;41.66
59272;BME280;45043;51.068;7.026;2024-03-07T09:10:29;101115.84;;;11.29;41.68
59272;BME280;45043;51.068;7.026;2024-03-07T09:13:30;101113.63;;;11.16;41.58
59272;BME280;45043;51.068;7.026;2024-03-07T09:16:32;101116.94;;;11.10;41.69
59272;BME280;45043;51.068;7.026;2024-03-07T09:19:32;101122.47;;;10.99;41.84
59272;BME280;45043;51.068;7.026;2024-03-07T09:22:33;101117.69;;;10.76;42.15
59272;BME280;45043;51.068;7.026;2024-03-07T09:25:34;101121.31;;;10.75;42.05
59272;BME280;45043;51.068;7.026;2024-03-07T09:28:34;101112.97;;;10.62;42.09
59272;BME280;45043;51.068;7.026;2024-03-07T09:31:35;101118.78;;;10.66;41.89
59272;BME280;45043;51.068;7.026;2024-03-07T09:34:37;101119.94;;;10.45;42.22
59272;BME280;45043;51.068;7.026;2024-03-07T09:37:41;101113.03;;;10.26;42.60
59272;BME280;45043;51.068;7.026;2024-03-07T09:40:46;101115.44;;;10.20;42.62
59272;BME280;45043;51.068;7.026;2024-03-07T09:43:48;101107.09;;;10.24;42.84
59272;BME280;45043;51.068;7.026;2024-03-07T09:46:55;101112.44;;;10.14;43.00
59272;BME280;45043;51.068;7.026;2024-03-07T09:49:59;101102.19;;;10.11;43.02
59272;BME280;45043;51.068;7.026;2024-03-07T09:53:03;101102.72;;;10.15;43.05
59272;BME280;45043;51.068;7.026;2024-03-07T09:56:06;101110.94;;;10.12;43.17
59272;BME280;45043;51.068;7.026;2024-03-07T09:59:12;101115.09;;;10.14;43.26
59272;BME280;45043;51.068;7.026;2024-03-07T10:02:17;101111.78;;;10.12;43.51
59272;BME280;45043;51.068;7.026;2024-03-07T10:05:22;101115.00;;;10.06;43.39
59272;BME280;45043;51.068;7.026;2024-03-07T10:08:25;101114.84;;;10.08;43.19
59272;BME280;45043;51.068;7.026;2024-03-07T10:11:26;101100.25;;;9.96;43.71
59272;BME280;45043;51.068;7.026;2024-03-07T10:14:27;101105.88;;;10.01;43.72
59272;BME280;45043;51.068;7.026;2024-03-07T10:17:28;101110.28;;;10.10;43.73
59272;BME280;45043;51.068;7.026;2024-03-07T10:20:30;101104.59;;;10.23;43.64
59272;BME280;45043;51.068;7.026;2024-03-07T10:23:31;101101.66;;;10.26;43.41
59272;BME280;45043;51.068;7.026;2024-03-07T10:26:37;101096.72;;;10.49;43.30
59272;BME280;45043;51.068;7.026;2024-03-07T10:29:40;101080.81;;;10.67;43.35
59272;BME280;45043;51.068;7.026;2024-03-07T10:32:41;101084.00;;;10.70;43.25
59272;BME280;45043;51.068;7.026;2024-03-07T10:35:46;101071.13;;;10.75;43.07
59272;BME280;45043;51.068;7.026;2024-03-07T10:38:49;101076.75;;;10.98;42.72
59272;BME280;45043;51.068;7.026;2024-03-07T10:41:50;101066.00;;;11.00;42.64
59272;BME280;45043;51.068;7.026;2024-03-07T10:44:53;101069.44;;;10.92;42.39
59272;BME280;45043;51.068;7.026;2024-03-07T10:47:58;101063.03;;;10.95;42.54
59272;BME280;45043;51.068;7.026;2024-03-07T10:51:21;101067.72;;;11.09;42.44
59272;BME280;45043;51.068;7.026;2024-03-07T10:54:48;101059.53;;;11.28;42.50
59272;BME280;45043;51.068;7.026;2024-03-07T10:58:09;101056.28;;;11.59;42.04
59272;BME280;45043;51.068;7.026;2024-03-07T11:01:16;101063.56;;;11.57;41.78
59272;BME280;45043;51.068;7.026;2024-03-07T11:04:19;101063.19;;;11.44;41.92
59272;BME280;45043;51.068;7.026;2024-03-07T11:07:23;101055.44;;;11.42;41.91
59272;BME280;45043;51.068;7.026;2024-03-07T11:10:25;101054.78;;;11.48;41.88
59272;BME280;45043;51.068;7.026;2024-03-07T11:13:26;101048.19;;;11.52;41.92
59272;BME280;45043;51.068;7.026;2024-03-07T11:16:28;101057.91;;;11.44;41.76
59272;BME280;45043;51.068;7.026;2024-03-07T11:19:31;101044.00;;;11.33;41.86
59272;BME280;45043;51.068;7.026;2024-03-07T11:22:36;101048.00;;;11.46;41.94
59272;BME280;45043;51.068;7.026;2024-03-07T11:25:41;101033.81;;;11.55;41.99
59272;BME280;45043;51.068;7.026;2024-03-07T11:28:43;101038.09;;;11.48;42.34
59272;BME280;45043;51.068;7.026;2024-03-07T11:31:44;101020.41;;;11.48;42.27
59272;BME280;45043;51.068;7.026;2024-03-07T11:34:47;101029.34;;;11.64;42.29
59272;BME280;45043;51.068;7.026;2024-03-07T11:37:48;101022.28;;;11.72;41.80
59272;BME280;45043;51.068;7.026;2024-03-07T11:40:50;101017.97;;;11.96;41.78
59272;BME280;45043;51.068;7.026;2024-03-07T11:43:52;101002.59;;;11.99;41.49
59272;BME280;45043;51.068;7.026;2024-03-07T11:46:55;101005.72;;;12.03;41.71
59272;BME280;45043;51.068;7.026;2024-03-07T11:49:56;100999.78;;;12.17;41.57
59272;BME280;45043;51.068;7.026;2024-03-07T11:52:58;101006.19;;;12.23;41.21
59272;BME280;45043;51.068;7.026;2024-03-07T11:56:00;100982.56;;;12.05;41.22
59272;BME280;45043;51.068;7.026;2024-03-07T11:59:10;100989.03;;;11.94;41.16
59272;BME280;45043;51.068;7.026;2024-03-07T12:02:14;100982.09;;;11.77;41.54
59272;BME280;45043;51.068;7.026;2024-03-07T12:05:16;100977.94;;;11.82;41.36
59272;BME280;45043;51.068;7.026;2024-03-07T12:08:18;100979.13;;;11.88;41.22
59272;BME280;45043;51.068;7.026;2024-03-07T12:11:23;100977.78;;;11.92;41.21
59272;BME280;45043;51.068;7.026;2024-03-07T12:14:26;100977.63;;;12.02;40.83
59272;BME280;45043;51.068;7.026;2024-03-07T12:17:27;100968.00;;;12.01;40.94
59272;BME280;45043;51.068;7.026;2024-03-07T12:20:31;100962.56;;;12.02;40.81
59272;BME280;45043;51.068;7.026;2024-03-07T12:23:33;100952.00;;;12.02;40.67
59272;BME280;45043;51.068;7.026;2024-03-07T12:26:34;100945.50;;;12.05;40.83
59272;BME280;45043;51.068;7.026;2024-03-07T12:29:39;100941.91;;;12.06;40.90
59272;BME280;45043;51.068;7.026;2024-03-07T12:32:47;100936.59;;;12.14;40.50
59272;BME280;45043;51.068;7.026;2024-03-07T12:35:51;100934.47;;;12.57;39.96
59272;BME280;45043;51.068;7.026;2024-03-07T12:38:53;100918.47;;;12.82;39.74
59272;BME280;45043;51.068;7.026;2024-03-07T12:41:57;100917.00;;;12.79;39.39
59272;BME280;45043;51.068;7.026;2024-03-07T12:44:58;100919.06;;;12.69;39.26
59272;BME280;45043;51.068;7.026;2024-03-07T12:48:07;100910.19;;;12.45;39.36
59272;BME280;45043;51.068;7.026;2024-03-07T12:51:09;100929.63;;;12.21;39.46
59272;BME280;45043;51.068;7.026;2024-03-07T12:54:10;100922.34;;;12.15;39.63
59272;BME280;45043;51.068;7.026;2024-03-07T12:57:11;100909.78;;;12.25;39.72
59272;BME280;45043;51.068;7.026;2024-03-07T13:00:12;100906.28;;;12.33;39.85
59272;BME280;45043;51.068;7.026;2024-03-07T13:03:19;100908.63;;;12.28;40.08
59272;BME280;45043;51.068;7.026;2024-03-07T13:06:20;100902.34;;;12.21;40.45
59272;BME280;45043;51.068;7.026;2024-03-07T13:09:26;100901.22;;;12.07;40.17
59272;BME280;45043;51.068;7.026;2024-03-07T13:12:31;100907.84;;;11.87;40.44
59272;BME280;45043;51.068;7.026;2024-03-07T13:15:32;100912.03;;;11.73;40.65
59272;BME280;45043;51.068;7.026;2024-03-07T13:18:32;100904.25;;;11.63;40.71
59272;BME280;45043;51.068;7.026;2024-03-07T13:21:34;100898.78;;;11.56;40.99
59272;BME280;45043;51.068;7.026;2024-03-07T13:24:35;100898.97;;;11.47;41.04
59272;BME280;45043;51.068;7.026;2024-03-07T13:27:36;100887.72;;;11.45;41.08
59272;BME280;45043;51.068;7.026;2024-03-07T13:30:37;100893.38;;;11.50;41.34
59272;BME280;45043;51.068;7.026;2024-03-07T13:33:38;100887.03;;;11.75;40.91
59272;BME280;45043;51.068;7.026;2024-03-07T13:36:40;100875.59;;;11.99;40.99
59272;BME280;45043;51.068;7.026;2024-03-07T13:39:42;100880.03;;;12.07;40.80
59272;BME280;45043;51.068;7.026;2024-03-07T13:42:45;100877.50;;;12.69;39.76
59272;BME280;45043;51.068;7.026;2024-03-07T13:45:45;100874.88;;;13.15;39.30
59272;BME280;45043;51.068;7.026;2024-03-07T13:48:48;100875.69;;;12.93;39.59
59272;BME280;45043;51.068;7.026;2024-03-07T13:51:49;100871.66;;;12.74;39.93
59272;BME280;45043;51.068;7.026;2024-03-07T13:55:04;100875.28;;;12.50;39.84
59272;BME280;45043;51.068;7.026;2024-03-07T13:58:17;100879.00;;;12.16;40.10
59272;BME280;45043;51.068;7.026;2024-03-07T14:15:04;100860.84;;;12.05;40.27
59272;BME280;45043;51.068;7.026;2024-03-07T14:32:05;100844.50;;;12.80;38.50
59272;BME280;45043;51.068;7.026;2024-03-07T14:35:14;100842.34;;;12.75;38.47
59272;BME280;45043;51.068;7.026;2024-03-07T14:38:39;100847.34;;;12.70;38.87
59272;BME280;45043;51.068;7.026;2024-03-07T14:41:50;100851.34;;;12.66;38.88
59272;BME280;45043;51.068;7.026;2024-03-07T14:44:52;100854.28;;;12.71;38.57
59272;BME280;45043;51.068;7.026;2024-03-07T14:47:54;100855.78;;;12.74;38.34
59272;BME280;45043;51.068;7.026;2024-03-07T14:50:54;100848.34;;;12.69;38.39
59272;BME280;45043;51.068;7.026;2024-03-07T14:53:55;100846.09;;;12.58;38.56
59272;BME280;45043;51.068;7.026;2024-03-07T14:56:56;100845.31;;;12.49;38.62
59272;BME280;45043;51.068;7.026;2024-03-07T14:59:57;100848.81;;;12.50;38.23
59272;BME280;45043;51.068;7.026;2024-03-07T15:02:57;100843.84;;;12.47;38.13
59272;BME280;45043;51.068;7.026;2024-03-07T15:05:58;100838.91;;;12.44;38.04
59272;BME280;45043;51.068;7.026;2024-03-07T15:09:00;100845.16;;;12.51;37.69
59272;BME280;45043;51.068;7.026;2024-03-07T15:12:01;100831.84;;;12.59;37.75
59272;BME280;45043;51.068;7.026;2024-03-07T15:15:02;100832.69;;;12.60;37.28
59272;BME280;45043;51.068;7.026;2024-03-07T15:18:03;100831.38;;;12.55;37.67
59272;BME280;45043;51.068;7.026;2024-03-07T15:21:04;100822.47;;;12.79;37.27
59272;BME280;45043;51.068;7.026;2024-03-07T15:24:06;100820.41;;;12.90;36.97
59272;BME280;45043;51.068;7.026;2024-03-07T15:27:07;100810.91;;;13.18;36.51
59272;BME280;45043;51.068;7.026;2024-03-07T15:30:10;100818.00;;;13.03;36.74
59272;BME280;45043;51.068;7.026;2024-03-07T15:33:15;100813.69;;;13.02;36.68
59272;BME280;45043;51.068;7.026;2024-03-07T15:36:16;100804.91;;;13.01;36.66
59272;BME280;45043;51.068;7.026;2024-03-07T15:39:18;100806.69;;;12.86;37.13
59272;BME280;45043;51.068;7.026;2024-03-07T15:42:27;100800.03;;;13.13;36.58
59272;BME280;45043;51.068;7.026;2024-03-07T15:45:28;100795.97;;;14.65;34.64
59272;BME280;45043;51.068;7.026;2024-03-07T15:48:30;100779.78;;;17.42;30.77
59272;BME280;45043;51.068;7.026;2024-03-07T15:51:33;100772.97;;;19.19;28.39
59272;BME280;45043;51.068;7.026;2024-03-07T15:54:36;100765.91;;;20.77;25.84
59272;BME280;45043;51.068;7.026;2024-03-07T15:57:44;100775.50;;;22.02;24.88
59272;BME280;45043;51.068;7.026;2024-03-07T16:00:47;100764.78;;;22.93;23.80
59272;BME280;45043;51.068;7.026;2024-03-07T16:03:47;100759.91;;;23.28;23.48
59272;BME280;45043;51.068;7.026;2024-03-07T16:06:48;100763.81;;;23.76;22.50
59272;BME280;45043;51.068;7.026;2024-03-07T16:09:48;100763.41;;;23.84;22.15
59272;BME280;45043;51.068;7.026;2024-03-07T16:12:51;100771.72;;;22.88;22.66
59272;BME280;45043;51.068;7.026;2024-03-07T16:15:51;100772.19;;;22.11;22.90
59272;BME280;45043;51.068;7.026;2024-03-07T16:18:54;100748.72;;;20.24;24.74
59272;BME280;45043;51.068;7.026;2024-03-07T16:21:54;100759.41;;;18.32;26.42
59272;BME280;45043;51.068;7.026;2024-03-07T16:24:55;100764.22;;;17.25;28.02
59272;BME280;45043;51.068;7.026;2024-03-07T16:27:57;100756.56;;;16.49;28.56